createdAt,value
2023-06-19T00:02:07.615Z,79.51
2023-06-19T00:04:34.582Z,79.00
2023-06-19T00:07:01.918Z,79.29
2023-06-19T00:09:28.910Z,79.69
2023-06-19T00:11:55.759Z,79.66
2023-06-19T00:14:22.616Z,78.93
2023-06-19T00:16:49.522Z,78.93
2023-06-19T00:19:16.394Z,79.36
2023-06-19T00:21:43.285Z,79.50
2023-06-19T00:24:11.872Z,79.29
2023-06-19T00:26:39.169Z,79.23
2023-06-19T00:29:05.999Z,79.11
2023-06-19T00:31:32.900Z,79.10
2023-06-19T00:33:59.734Z,79.25
2023-06-19T00:36:26.551Z,79.59
2023-06-19T00:38:53.730Z,79.15
2023-06-19T00:41:21.432Z,78.67
2023-06-19T00:43:48.277Z,79.49
2023-06-19T00:46:15.194Z,79.49
2023-06-19T00:48:42.214Z,79.62
2023-06-19T00:51:09.249Z,79.44
2023-06-19T00:53:36.944Z,80.19
2023-06-19T00:56:05.165Z,79.74
2023-06-19T00:58:32.396Z,79.83
2023-06-19T01:01:07.912Z,79.35
2023-06-19T01:03:36.945Z,80.08
2023-06-19T01:06:06.973Z,79.78
2023-06-19T01:09:06.756Z,80.22
2023-06-19T01:11:38.973Z,80.71
2023-06-19T01:14:14.257Z,80.79
2023-06-19T01:16:42.439Z,80.92
2023-06-19T01:19:12.318Z,80.74
2023-06-19T01:21:39.633Z,80.30
2023-06-19T01:24:06.757Z,80.37
2023-06-19T01:26:33.892Z,80.00
2023-06-19T01:29:01.049Z,80.21
2023-06-19T01:31:42.023Z,80.36
2023-06-19T01:34:11.408Z,80.32
2023-06-19T01:36:38.621Z,81.21
2023-06-19T01:39:06.598Z,81.20
2023-06-19T01:41:34.223Z,81.11
2023-06-19T01:44:01.723Z,80.85
2023-06-19T01:46:28.677Z,80.73
2023-06-19T01:48:55.804Z,80.45
2023-06-19T01:51:22.767Z,80.71
2023-06-19T01:53:49.698Z,80.28
2023-06-19T01:56:16.715Z,79.75
2023-06-19T01:58:43.600Z,79.69
2023-06-19T02:01:10.631Z,80.06
2023-06-19T02:03:37.565Z,79.78
2023-06-19T02:06:04.443Z,79.55
2023-06-19T02:08:31.318Z,79.89
2023-06-19T02:10:58.278Z,79.63
2023-06-19T02:13:25.106Z,78.83
2023-06-19T02:15:52.056Z,78.44
2023-06-19T02:18:19.112Z,78.72
2023-06-19T02:20:46.039Z,78.50
2023-06-19T02:23:12.947Z,78.35
2023-06-19T02:25:39.823Z,78.26
2023-06-19T02:28:06.784Z,78.37
2023-06-19T02:30:33.682Z,77.99
2023-06-19T02:33:00.634Z,78.18
2023-06-19T02:35:27.782Z,78.71
2023-06-19T02:37:54.647Z,78.55
2023-06-19T02:40:21.759Z,78.40
2023-06-19T02:42:48.930Z,78.56
2023-06-19T02:45:16.025Z,78.11
2023-06-19T02:47:42.854Z,78.69
2023-06-19T02:50:10.087Z,78.74
2023-06-19T02:52:36.928Z,79.85
2023-06-19T02:55:04.026Z,79.92
2023-06-19T02:57:31.029Z,80.52
2023-06-19T02:59:57.933Z,80.57
2023-06-19T03:02:24.804Z,81.02
2023-06-19T03:04:51.957Z,80.72
2023-06-19T03:07:18.841Z,81.50
2023-06-19T03:09:45.654Z,81.86
2023-06-19T03:12:12.531Z,81.91
2023-06-19T03:14:39.414Z,82.45
2023-06-19T03:17:06.798Z,81.89
2023-06-19T03:19:33.845Z,81.31
2023-06-19T03:22:00.713Z,81.35
2023-06-19T03:24:27.757Z,80.92
2023-06-19T03:26:54.695Z,80.99
2023-06-19T03:29:21.737Z,80.82
2023-06-19T03:31:48.572Z,80.53
2023-06-19T03:34:15.416Z,80.60
2023-06-19T03:36:42.367Z,81.28
2023-06-19T03:39:09.242Z,81.63
2023-06-19T03:41:36.145Z,81.36
2023-06-19T03:44:03.026Z,81.48
2023-06-19T03:46:29.913Z,81.81
2023-06-19T03:48:56.764Z,81.50
2023-06-19T03:51:23.676Z,81.63
2023-06-19T03:53:50.589Z,81.94
2023-06-19T03:56:17.469Z,81.33
2023-06-19T03:58:44.366Z,80.95
2023-06-19T04:01:11.270Z,81.30
2023-06-19T04:03:40.402Z,81.22
2023-06-19T04:06:08.991Z,81.76
2023-06-19T04:08:35.875Z,81.40
2023-06-19T04:11:02.752Z,81.75
2023-06-19T04:13:29.761Z,81.08
2023-06-19T04:15:56.643Z,81.33
2023-06-19T04:18:23.538Z,81.43
2023-06-19T04:20:50.401Z,82.27
2023-06-19T04:23:17.273Z,82.12
2023-06-19T04:25:44.064Z,82.64
2023-06-19T04:28:11.038Z,82.96
2023-06-19T04:30:37.890Z,83.40
2023-06-19T04:33:04.816Z,85.06
2023-06-19T04:35:31.689Z,88.44
2023-06-19T04:37:58.785Z,91.07
2023-06-19T04:40:25.758Z,91.63
2023-06-19T04:42:53.131Z,94.98
2023-06-19T04:45:20.110Z,96.08
2023-06-19T04:47:53.234Z,96.71
2023-06-19T04:50:22.943Z,91.13
2023-06-19T04:52:50.211Z,83.95
2023-06-19T04:55:17.461Z,87.01
2023-06-19T04:57:44.464Z,95.96
2023-06-19T05:00:11.934Z,100.00
2023-06-19T05:02:38.967Z,100.00
2023-06-19T05:05:06.517Z,100.00
2023-06-19T05:07:33.902Z,100.00
2023-06-19T05:10:00.892Z,100.00
2023-06-19T05:12:27.809Z,100.00
2023-06-19T05:14:54.761Z,100.00
2023-06-19T05:17:21.908Z,100.00
2023-06-19T05:19:49.176Z,100.00
2023-06-19T05:22:16.118Z,100.00
2023-06-19T05:24:43.148Z,100.00
2023-06-19T05:27:10.175Z,100.00
2023-06-19T05:29:37.071Z,100.00
2023-06-19T05:32:04.271Z,100.00
2023-06-19T05:34:31.206Z,100.00
2023-06-19T05:36:59.564Z,100.00
2023-06-19T05:39:26.393Z,100.00
2023-06-19T05:41:53.425Z,100.00
2023-06-19T05:44:20.332Z,100.00
2023-06-19T05:46:47.173Z,100.00
2023-06-19T05:49:14.080Z,100.00
2023-06-19T05:51:40.908Z,100.00
2023-06-19T05:54:07.705Z,100.00
2023-06-19T05:56:34.783Z,100.00
2023-06-19T05:59:02.425Z,100.00
2023-06-19T06:01:30.413Z,100.00
2023-06-19T06:03:58.379Z,100.00
2023-06-19T06:06:25.670Z,100.00
2023-06-19T06:08:52.827Z,100.00
2023-06-19T06:11:20.019Z,100.00
2023-06-19T06:13:46.965Z,100.00
2023-06-19T06:16:13.815Z,100.00
2023-06-19T06:18:40.760Z,100.00
2023-06-19T06:21:07.602Z,100.00
2023-06-19T06:23:34.400Z,100.00
2023-06-19T06:26:01.298Z,100.00
2023-06-19T06:28:34.036Z,100.00
2023-06-19T06:31:00.913Z,100.00
2023-06-19T06:33:28.817Z,100.00
2023-06-19T06:35:56.413Z,100.00
2023-06-19T06:38:23.519Z,99.66
2023-06-19T06:40:50.559Z,98.57
2023-06-19T06:43:17.617Z,97.93
2023-06-19T06:45:44.605Z,96.23
2023-06-19T06:48:11.510Z,96.60
2023-06-19T06:50:38.378Z,95.43
2023-06-19T06:53:05.313Z,95.64
2023-06-19T06:55:32.230Z,95.18
2023-06-19T06:57:59.102Z,94.83
2023-06-19T07:00:26.175Z,94.32
2023-06-19T07:02:53.348Z,93.30
2023-06-19T07:05:21.827Z,92.53
2023-06-19T07:07:48.776Z,91.42
2023-06-19T07:10:15.647Z,91.05
2023-06-19T07:12:49.573Z,92.58
2023-06-19T07:15:17.181Z,95.04
2023-06-19T07:17:45.971Z,95.38
2023-06-19T07:20:13.366Z,97.31
2023-06-19T07:22:40.826Z,95.97
2023-06-19T07:25:08.231Z,95.49
2023-06-19T07:27:35.268Z,95.21
2023-06-19T07:30:02.257Z,94.77
2023-06-19T07:32:29.190Z,93.94
2023-06-19T07:34:56.250Z,92.11
2023-06-19T07:37:23.178Z,89.79
2023-06-19T07:39:51.797Z,90.34
2023-06-19T07:42:20.104Z,90.38
2023-06-19T07:44:47.332Z,89.25
2023-06-19T07:47:18.244Z,87.71
2023-06-19T07:49:45.520Z,87.88
2023-06-19T07:52:12.600Z,87.95
2023-06-19T07:54:52.734Z,85.21
2023-06-19T07:57:19.776Z,84.23
2023-06-19T07:59:47.674Z,84.42
2023-06-19T08:02:14.776Z,84.73
2023-06-19T08:04:41.832Z,85.93
2023-06-19T08:07:08.898Z,85.95
2023-06-19T08:09:36.006Z,85.42
2023-06-19T08:12:03.727Z,86.38
2023-06-19T08:14:30.616Z,85.06
2023-06-19T08:16:57.627Z,84.12
2023-06-19T08:19:24.522Z,85.52
2023-06-19T08:21:51.384Z,84.81
2023-06-19T08:24:18.404Z,84.78
2023-06-19T08:26:45.279Z,84.29
2023-06-19T08:29:12.113Z,85.94
2023-06-19T08:31:38.991Z,86.80
2023-06-19T08:34:05.834Z,85.74
2023-06-19T08:36:32.625Z,85.60
2023-06-19T08:38:59.619Z,86.62
2023-06-19T08:41:26.433Z,86.01
2023-06-19T08:43:53.454Z,85.89
2023-06-19T08:46:20.480Z,83.68
2023-06-19T08:48:47.802Z,83.66
2023-06-19T08:51:14.739Z,82.62
2023-06-19T08:53:55.866Z,83.68
2023-06-19T08:56:23.144Z,84.79
2023-06-19T08:58:50.051Z,86.45
2023-06-19T09:01:20.678Z,87.29
2023-06-19T09:03:48.379Z,85.28
2023-06-19T09:06:17.386Z,84.62
2023-06-19T09:08:44.428Z,86.65
2023-06-19T09:11:12.462Z,85.63
2023-06-19T09:13:39.508Z,85.21
2023-06-19T09:16:08.846Z,83.96
2023-06-19T09:18:49.312Z,83.58
2023-06-19T09:21:20.612Z,84.66
2023-06-19T09:23:47.774Z,85.84
2023-06-19T09:26:18.545Z,84.18
2023-06-19T09:28:45.844Z,83.40
2023-06-19T09:31:12.804Z,83.90
2023-06-19T09:33:40.768Z,84.68
2023-06-19T09:36:08.387Z,83.74
2023-06-19T09:38:38.694Z,83.73
2023-06-19T09:41:16.703Z,80.96
2023-06-19T09:43:48.576Z,80.87
2023-06-19T09:46:16.170Z,82.20
2023-06-19T09:48:45.380Z,82.98
2023-06-19T09:51:24.627Z,82.40
2023-06-19T09:53:51.652Z,79.91
2023-06-19T09:56:19.572Z,82.12
2023-06-19T09:58:47.240Z,82.41
2023-06-19T10:01:15.517Z,81.64
2023-06-19T10:03:42.342Z,81.57
2023-06-19T10:06:15.525Z,78.74
2023-06-19T10:08:43.984Z,82.18
2023-06-19T10:11:11.700Z,84.01
2023-06-19T10:13:42.010Z,83.15
2023-06-19T10:16:20.325Z,83.58
2023-06-19T10:18:48.817Z,83.56
2023-06-19T10:21:20.001Z,82.28
2023-06-19T10:23:59.757Z,81.47
2023-06-19T10:26:34.181Z,81.39
2023-06-19T10:29:01.661Z,81.09
2023-06-19T10:31:28.555Z,78.34
2023-06-19T10:33:55.460Z,79.37
2023-06-19T10:36:24.217Z,79.93
2023-06-19T10:38:51.153Z,78.29
2023-06-19T10:41:22.818Z,78.46
2023-06-19T10:44:06.990Z,78.18
2023-06-19T10:46:35.947Z,78.23
2023-06-19T10:49:04.506Z,77.20
2023-06-19T10:51:32.820Z,73.53
2023-06-19T10:53:59.665Z,73.99
2023-06-19T10:56:27.015Z,73.26
2023-06-19T10:59:11.032Z,74.63
2023-06-19T11:01:40.754Z,72.47
2023-06-19T11:04:09.110Z,71.15
2023-06-19T11:06:36.662Z,72.23
2023-06-19T11:09:07.167Z,70.08
2023-06-19T11:11:45.400Z,71.44
2023-06-19T11:14:14.016Z,72.09
2023-06-19T11:16:46.721Z,73.46
2023-06-19T11:19:19.028Z,73.23
2023-06-19T11:21:52.104Z,72.18
2023-06-19T11:24:19.962Z,71.99
2023-06-19T11:26:49.037Z,72.61
2023-06-19T11:29:32.192Z,72.53
2023-06-19T11:32:08.901Z,71.20
2023-06-19T11:34:37.150Z,70.34
2023-06-19T11:37:16.695Z,69.50
2023-06-19T11:39:48.567Z,67.50
2023-06-19T11:42:16.340Z,69.52
2023-06-19T11:45:02.753Z,70.48
2023-06-19T11:47:31.726Z,69.12
2023-06-19T11:49:59.391Z,70.51
2023-06-19T11:52:26.285Z,71.16
2023-06-19T11:54:53.231Z,71.06
2023-06-19T11:57:20.146Z,73.13
2023-06-19T11:59:47.000Z,71.90
2023-06-19T12:02:14.423Z,70.79
2023-06-19T12:04:41.554Z,70.64
2023-06-19T12:07:08.823Z,67.02
2023-06-19T12:09:35.930Z,68.32
2023-06-19T12:12:02.768Z,71.79
2023-06-19T12:14:29.684Z,71.28
2023-06-19T12:16:56.631Z,71.54
2023-06-19T12:19:23.548Z,71.41
2023-06-19T12:21:50.803Z,68.98
2023-06-19T12:24:17.653Z,66.85
2023-06-19T12:26:44.677Z,66.96
2023-06-19T12:29:11.789Z,66.87
2023-06-19T12:31:38.840Z,67.99
2023-06-19T12:34:13.999Z,69.72
2023-06-19T12:36:48.031Z,71.34
2023-06-19T12:39:14.887Z,71.72
2023-06-19T12:41:41.938Z,72.95
2023-06-19T12:44:08.907Z,71.74
2023-06-19T12:46:35.997Z,70.81
2023-06-19T12:49:02.952Z,70.78
2023-06-19T12:51:29.902Z,70.50
2023-06-19T12:53:56.805Z,70.60
2023-06-19T12:56:23.861Z,70.65
2023-06-19T12:58:50.764Z,69.84
2023-06-19T13:01:17.825Z,69.89
2023-06-19T13:03:44.882Z,69.77
2023-06-19T13:06:11.879Z,68.37
2023-06-19T13:08:38.812Z,66.91
2023-06-19T13:11:05.704Z,67.40
2023-06-19T13:13:32.716Z,67.61
2023-06-19T13:15:59.735Z,68.78
2023-06-19T13:18:26.880Z,68.47
2023-06-19T13:20:53.896Z,68.77
2023-06-19T13:23:20.951Z,67.23
2023-06-19T13:25:47.980Z,68.53
2023-06-19T13:28:14.903Z,68.22
2023-06-19T13:30:41.749Z,70.92
2023-06-19T13:33:08.751Z,68.26
2023-06-19T13:35:35.885Z,66.23
2023-06-19T13:38:02.730Z,64.27
2023-06-19T13:40:29.611Z,66.04
2023-06-19T13:42:56.873Z,67.92
2023-06-19T13:45:25.553Z,62.58
2023-06-19T13:47:52.653Z,62.35
2023-06-19T13:50:19.607Z,63.82
2023-06-19T13:52:47.341Z,62.93
2023-06-19T13:55:14.826Z,61.56
2023-06-19T13:57:42.424Z,62.92
2023-06-19T14:00:12.133Z,64.48
2023-06-19T14:02:40.203Z,63.94
2023-06-19T14:05:08.680Z,63.87
2023-06-19T14:07:36.507Z,63.31
2023-06-19T14:10:05.305Z,64.16
2023-06-19T14:12:32.615Z,63.23
2023-06-19T14:14:59.667Z,63.92
2023-06-19T14:17:26.608Z,62.09
2023-06-19T14:19:53.619Z,60.65
2023-06-19T14:22:20.501Z,60.79
2023-06-19T14:24:47.368Z,61.75
2023-06-19T14:27:14.385Z,61.15
2023-06-19T14:29:41.266Z,62.46
2023-06-19T14:32:08.128Z,62.13
2023-06-19T14:34:35.294Z,62.22
2023-06-19T14:37:05.176Z,62.24
2023-06-19T14:39:32.141Z,61.06
2023-06-19T14:41:59.278Z,61.84
2023-06-19T14:44:26.334Z,62.00
2023-06-19T14:46:53.364Z,61.29
2023-06-19T14:49:22.108Z,61.47
2023-06-19T14:51:49.243Z,62.55
2023-06-19T14:54:16.345Z,63.48
2023-06-19T14:56:43.189Z,64.94
2023-06-19T14:59:10.280Z,65.79
2023-06-19T15:01:37.373Z,69.30
2023-06-19T15:04:04.715Z,69.64
2023-06-19T15:06:31.716Z,72.82
2023-06-19T15:08:59.071Z,74.60
2023-06-19T15:11:27.336Z,76.61
2023-06-19T15:13:54.158Z,77.47
2023-06-19T15:16:21.081Z,76.86
2023-06-19T15:18:48.103Z,76.46
2023-06-19T15:21:15.486Z,77.71
2023-06-19T15:23:42.378Z,78.06
2023-06-19T15:26:09.392Z,77.44
2023-06-19T15:28:36.228Z,77.74
2023-06-19T15:31:03.624Z,77.38
2023-06-19T15:33:30.695Z,77.78
2023-06-19T15:35:57.580Z,78.04
2023-06-19T15:38:24.520Z,78.89
2023-06-19T15:40:52.065Z,78.94
2023-06-19T15:43:19.086Z,79.19
2023-06-19T15:45:45.981Z,79.77
2023-06-19T15:48:13.131Z,79.32
2023-06-19T15:50:40.577Z,79.73
2023-06-19T15:53:07.418Z,79.14
2023-06-19T15:55:34.387Z,78.63
2023-06-19T15:58:01.372Z,75.76
2023-06-19T16:00:28.423Z,76.35
2023-06-19T16:02:55.536Z,76.60
2023-06-19T16:05:22.557Z,76.27
2023-06-19T16:07:49.416Z,76.27
2023-06-19T16:10:16.274Z,75.91
2023-06-19T16:12:43.113Z,76.61
2023-06-19T16:15:10.554Z,76.42
2023-06-19T16:17:37.823Z,76.14
2023-06-19T16:20:05.146Z,73.22
2023-06-19T16:22:32.102Z,74.27
2023-06-19T16:24:59.000Z,73.77
2023-06-19T16:27:25.925Z,73.55
2023-06-19T16:29:52.986Z,73.55
2023-06-19T16:32:20.265Z,71.83
2023-06-19T16:34:47.464Z,72.46
2023-06-19T16:37:14.406Z,72.09
2023-06-19T16:39:41.867Z,70.57
2023-06-19T16:42:08.862Z,72.30
2023-06-19T16:44:35.766Z,72.63
2023-06-19T16:47:02.874Z,74.00
2023-06-19T16:49:29.854Z,74.01
2023-06-19T16:51:56.666Z,73.41
2023-06-19T16:54:23.645Z,73.40
2023-06-19T16:56:50.482Z,73.20
2023-06-19T16:59:17.313Z,74.23
2023-06-19T17:01:44.559Z,73.42
2023-06-19T17:04:11.580Z,74.09
2023-06-19T17:06:38.646Z,73.99
2023-06-19T17:09:05.605Z,73.95
2023-06-19T17:11:32.540Z,73.34
2023-06-19T17:13:59.450Z,75.17
2023-06-19T17:16:28.625Z,74.85
2023-06-19T17:18:55.561Z,74.87
2023-06-19T17:21:22.994Z,74.92
2023-06-19T17:23:49.992Z,73.51
2023-06-19T17:26:16.976Z,73.10
2023-06-19T17:28:43.914Z,73.50
2023-06-19T17:31:10.794Z,74.15
2023-06-19T17:33:37.622Z,74.67
2023-06-19T17:36:04.895Z,74.22
2023-06-19T17:38:31.848Z,72.45
2023-06-19T17:40:58.823Z,71.44
2023-06-19T17:43:25.671Z,72.17
2023-06-19T17:45:52.732Z,72.70
2023-06-19T17:48:19.602Z,72.68
2023-06-19T17:50:46.499Z,72.28
2023-06-19T17:53:13.540Z,72.51
2023-06-19T17:55:40.757Z,72.73
2023-06-19T17:58:07.696Z,72.53
2023-06-19T18:00:34.746Z,72.18
2023-06-19T18:03:01.685Z,72.68
2023-06-19T18:05:28.622Z,74.23
2023-06-19T18:07:55.683Z,75.04
2023-06-19T18:10:22.822Z,76.08
2023-06-19T18:12:50.006Z,75.93
2023-06-19T18:15:17.695Z,75.78
2023-06-19T18:17:44.664Z,75.83
2023-06-19T18:20:12.479Z,75.15
2023-06-19T18:22:39.437Z,75.01
2023-06-19T18:25:06.591Z,74.56
2023-06-19T18:27:33.656Z,74.65
2023-06-19T18:30:04.018Z,75.08
2023-06-19T18:32:31.709Z,75.09
2023-06-19T18:34:58.678Z,75.16
2023-06-19T18:37:25.689Z,75.08
2023-06-19T18:39:52.562Z,75.41
2023-06-19T18:42:19.514Z,75.33
2023-06-19T18:44:46.481Z,75.50
2023-06-19T18:47:13.543Z,75.25
2023-06-19T18:49:40.354Z,75.23
2023-06-19T18:52:07.791Z,75.32
2023-06-19T18:54:34.712Z,75.76
2023-06-19T18:57:01.583Z,75.91
2023-06-19T18:59:28.588Z,75.27
2023-06-19T19:01:55.580Z,75.50
2023-06-19T19:04:22.525Z,75.33
2023-06-19T19:06:49.380Z,75.84
2023-06-19T19:09:16.204Z,75.83
2023-06-19T19:11:43.031Z,76.35
2023-06-19T19:14:10.002Z,76.17
2023-06-19T19:16:37.100Z,75.86
2023-06-19T19:19:04.022Z,76.06
2023-06-19T19:21:31.014Z,76.12
2023-06-19T19:23:57.921Z,75.78
2023-06-19T19:26:25.153Z,75.92
2023-06-19T19:28:52.080Z,76.00
2023-06-19T19:31:18.946Z,75.90
2023-06-19T19:33:45.979Z,76.22
2023-06-19T19:36:13.124Z,76.49
2023-06-19T19:38:40.036Z,76.99
2023-06-19T19:41:07.018Z,76.87
2023-06-19T19:43:33.985Z,76.87
2023-06-19T19:46:01.026Z,76.60
2023-06-19T19:48:28.078Z,77.23
2023-06-19T19:50:55.186Z,76.98
2023-06-19T19:53:22.221Z,76.99
2023-06-19T19:55:49.314Z,77.47
2023-06-19T19:58:16.247Z,76.84
2023-06-19T20:00:43.265Z,77.02
2023-06-19T20:03:10.251Z,77.25
2023-06-19T20:05:37.354Z,77.68
2023-06-19T20:08:04.503Z,77.96
2023-06-19T20:10:31.448Z,77.49
2023-06-19T20:12:58.411Z,77.68
2023-06-19T20:15:25.275Z,78.53
2023-06-19T20:17:52.449Z,78.85
2023-06-19T20:20:19.355Z,78.86
2023-06-19T20:22:46.256Z,79.33
2023-06-19T20:25:13.185Z,78.97
2023-06-19T20:27:40.154Z,79.51
2023-06-19T20:30:07.733Z,79.99
2023-06-19T20:32:34.645Z,80.00
2023-06-19T20:35:01.641Z,80.50
2023-06-19T20:37:28.462Z,80.56
2023-06-19T20:39:55.344Z,80.41
2023-06-19T20:42:22.230Z,80.18
2023-06-19T20:44:49.059Z,79.95
2023-06-19T20:47:15.981Z,79.32
2023-06-19T20:49:42.979Z,78.87
2023-06-19T20:52:09.836Z,78.87
2023-06-19T20:54:36.739Z,79.14
2023-06-19T20:57:03.792Z,78.64
2023-06-19T20:59:30.628Z,78.65
2023-06-19T21:01:57.556Z,78.92
2023-06-19T21:04:24.523Z,78.80
2023-06-19T21:06:51.413Z,78.74
2023-06-19T21:09:18.391Z,79.10
2023-06-19T21:11:46.556Z,78.82
2023-06-19T21:14:13.542Z,79.18
2023-06-19T21:16:40.494Z,79.18
2023-06-19T21:19:07.869Z,79.03
2023-06-19T21:21:34.746Z,78.79
2023-06-19T21:24:01.643Z,78.95
2023-06-19T21:26:28.737Z,78.62
2023-06-19T21:28:55.519Z,78.35
2023-06-19T21:31:22.349Z,78.31
2023-06-19T21:33:49.286Z,78.51
2023-06-19T21:36:16.186Z,78.39
2023-06-19T21:38:43.067Z,78.38
2023-06-19T21:41:10.050Z,78.24
2023-06-19T21:43:36.850Z,78.29
2023-06-19T21:46:03.728Z,78.51
2023-06-19T21:48:30.634Z,78.94
2023-06-19T21:50:57.595Z,79.20
2023-06-19T21:53:24.620Z,78.81
2023-06-19T21:55:51.599Z,79.00
2023-06-19T21:58:18.462Z,79.22
2023-06-19T22:00:45.566Z,79.97
2023-06-19T22:03:12.575Z,79.77
2023-06-19T22:05:39.778Z,80.56
2023-06-19T22:08:06.709Z,81.00
2023-06-19T22:10:33.567Z,80.90
2023-06-19T22:13:00.435Z,81.15
2023-06-19T22:15:27.384Z,81.19
2023-06-19T22:17:54.339Z,81.04
2023-06-19T22:20:21.261Z,80.17
2023-06-19T22:22:49.175Z,80.01
2023-06-19T22:25:16.395Z,79.47
2023-06-19T22:27:43.348Z,79.78
2023-06-19T22:30:10.694Z,80.11
2023-06-19T22:32:37.746Z,80.10
2023-06-19T22:35:05.448Z,80.30
2023-06-19T22:37:32.911Z,79.94
2023-06-19T22:40:00.028Z,79.74
2023-06-19T22:42:26.871Z,79.16
2023-06-19T22:44:53.755Z,79.45
2023-06-19T22:47:20.637Z,79.82
2023-06-19T22:49:47.476Z,79.80
2023-06-19T22:52:14.391Z,79.70
2023-06-19T22:54:41.337Z,79.94
2023-06-19T22:57:08.221Z,80.70
2023-06-19T22:59:35.091Z,81.06
2023-06-19T23:02:02.209Z,81.57
2023-06-19T23:04:29.059Z,81.43
2023-06-19T23:06:55.903Z,80.73
2023-06-19T23:09:22.823Z,80.37
2023-06-19T23:11:49.671Z,80.05
2023-06-19T23:14:16.528Z,79.56
2023-06-19T23:16:43.423Z,79.51
2023-06-19T23:19:10.318Z,79.59
2023-06-19T23:21:37.215Z,79.28
2023-06-19T23:24:04.389Z,78.83
2023-06-19T23:26:31.261Z,78.93
2023-06-19T23:28:58.174Z,78.71
2023-06-19T23:31:25.094Z,78.67
2023-06-19T23:33:52.751Z,78.60
2023-06-19T23:36:19.760Z,78.32
2023-06-19T23:38:47.309Z,78.17
2023-06-19T23:41:14.172Z,78.08
2023-06-19T23:43:41.123Z,78.33
2023-06-19T23:46:09.093Z,78.27
2023-06-19T23:48:36.046Z,78.21
2023-06-19T23:51:03.299Z,77.89
2023-06-19T23:53:30.510Z,78.02
2023-06-19T23:55:57.335Z,77.56
2023-06-19T23:58:24.396Z,77.81
